Terminal Aerodrome Forecast
Issued by NWS

Home | Current Version | Previous Version | Text Only | Print | Product List | Glossary On
Versions: 1 2 3 4 5 6 7 8 9 10 11 12 13
000
FTUS42 KTAE 282321
TAFECP
TAF
KECP 282321Z 2900/2924 VRB05KT P6SM SCT080 BKN250
     FM290300 07003KT P6SM SCT250
     FM291600 14008KT P6SM FEW050=

USA.gov is the U.S. government's official web portal to all federal, state and local government web resources and services.